Terminal Aerodrome Forecast
Issued by NWS

Current Version | Previous Version | Text Only | Print | Product List | Glossary On
Versions: 1 2 3 4 5 6 7 8 9 10 11 12
000
FTUS44 KSJT 091120
TAFBBD
TAF
KBBD 091120Z 0912/1012 12006KT P6SM BKN050
     FM091800 18007KT P6SM SCT060
     FM100000 VRB05KT P6SM SKC
      AMD NOT SKED=

USA.gov is the U.S. government's official web portal to all federal, state and local government web resources and services.